^^
nws-alerts.php - 1.15 - 19-Aug-2013 - NWS Public Alerts
Station Historical Data
 
Daily Summary for June 29, 2017 Units:  English    Metric   Both
« Previous Day
Next Day »
Daily Weekly Monthly Yearly Custom
  Current: High: Low: Average:
Temperature: 86.7 °F 86.7 °F 74.1 °F 76.7 °F
Dew Point: 79.4 °F 79.8 °F 73.0 °F 74.8 °F
Humidity: 79% 98% 79% 94%
Wind Speed: 6.2mph 6.2mph 0.0mph 0.7mph
Wind Gust: 6.6mph 9.2mph - -
WindENE - - ENE
Pressure: 30.10 in 30.10 in 30.05 in -
Precipitation: 0.00 in      
Historical Graphs
 
 
Tabular Data for June 29, 2017
Time Temperature Dew Point Pressure Wind Wind Speed Wind Gust Humidity Rainfall Rate (Hourly) Conditions
00:00 75.1 °F 73.3 °F 30.09 in Calm   1.2 mph 94% 0.00 in 0.0 W/m2
00:05 75.0 °F 73.2 °F 30.08 in Calm     94% 0.00 in 0.0 W/m2
00:10 74.9 °F 73.1 °F 30.09 in Calm   1.0 mph 94% 0.00 in 0.0 W/m2
00:15 75.0 °F 73.2 °F 30.09 in Calm     94% 0.00 in 0.0 W/m2
00:20 75.4 °F 73.6 °F 30.08 in Calm   1.0 mph 94% 0.00 in 0.0 W/m2
00:25 75.7 °F 73.5 °F 30.08 in Calm   1.0 mph 93% 0.00 in 0.0 W/m2
00:30 75.8 °F 73.3 °F 30.08 in Calm   1.0 mph 92% 0.00 in 0.0 W/m2
00:35 75.4 °F 73.2 °F 30.08 in Calm     93% 0.00 in 0.0 W/m2
00:40 75.2 °F 73.0 °F 30.08 in Calm     93% 0.00 in 0.0 W/m2
00:45 75.0 °F 73.2 °F 30.08 in Calm     94% 0.00 in 0.0 W/m2
00:50 74.9 °F 73.1 °F 30.08 in Calm     94% 0.00 in 0.0 W/m2
00:55 74.8 °F 73.0 °F 30.08 in Calm     94% 0.00 in 0.0 W/m2
01:00 74.9 °F 73.4 °F 30.08 in Calm   1.2 mph 95% 0.00 in 0.0 W/m2
01:05 75.1 °F 73.6 °F 30.08 in Calm     95% 0.00 in 0.0 W/m2
01:10 75.1 °F 73.6 °F 30.08 in Calm     95% 0.00 in 0.0 W/m2
01:15 75.1 °F 73.6 °F 30.08 in Calm   1.2 mph 95% 0.00 in 0.0 W/m2
01:20 75.2 °F 73.7 °F 30.08 in East 0.1 mph 1.2 mph 95% 0.00 in 0.0 W/m2
01:25 75.4 °F 73.9 °F 30.08 in ESE 1.0 mph 3.3 mph 95% 0.00 in 0.0 W/m2
01:30 75.7 °F 74.2 °F 30.08 in East 0.6 mph 1.2 mph 95% 0.00 in 0.0 W/m2
01:36 76.0 °F 74.5 °F 30.08 in East 1.7 mph 2.2 mph 95% 0.00 in 0.0 W/m2
01:41 76.1 °F 74.6 °F 30.08 in East 1.8 mph 3.5 mph 95% 0.00 in 0.0 W/m2
01:46 76.1 °F 74.2 °F 30.08 in Calm   1.2 mph 94% 0.00 in 0.0 W/m2
01:51 75.9 °F 74.0 °F 30.08 in ENE 0.1 mph 1.2 mph 94% 0.00 in 0.0 W/m2
01:56 75.8 °F 74.3 °F 30.08 in Calm     95% 0.00 in 0.0 W/m2
02:01 75.7 °F 74.2 °F 30.08 in Calm     95% 0.00 in 0.0 W/m2
02:06 75.6 °F 74.1 °F 30.08 in Calm     95% 0.00 in 0.0 W/m2
02:11 75.6 °F 74.1 °F 30.08 in Calm     95% 0.00 in 0.0 W/m2
02:16 75.4 °F 73.9 °F 30.07 in Calm     95% 0.00 in 0.0 W/m2
02:21 75.2 °F 73.7 °F 30.08 in Calm     95% 0.00 in 0.0 W/m2
02:26 75.1 °F 73.6 °F 30.07 in Calm     95% 0.00 in 0.0 W/m2
02:31 75.1 °F 73.9 °F 30.07 in Calm     96% 0.00 in 0.0 W/m2
02:36 75.1 °F 73.9 °F 30.07 in Calm     96% 0.00 in 0.0 W/m2
02:41 75.0 °F 73.8 °F 30.07 in Calm     96% 0.00 in 0.0 W/m2
02:46 75.0 °F 73.8 °F 30.06 in Calm     96% 0.00 in 0.0 W/m2
02:51 75.0 °F 73.8 °F 30.06 in Calm     96% 0.00 in 0.0 W/m2
02:56 74.9 °F 73.7 °F 30.06 in Calm     96% 0.00 in 0.0 W/m2
03:01 74.8 °F 73.6 °F 30.06 in Calm     96% 0.00 in 0.0 W/m2
03:06 74.6 °F 73.4 °F 30.06 in Calm     96% 0.00 in 0.0 W/m2
03:11 74.6 °F 73.4 °F 30.05 in Calm     96% 0.00 in 0.0 W/m2
03:17 74.7 °F 73.5 °F 30.06 in Calm     96% 0.00 in 0.0 W/m2
03:19 74.7 °F 73.5 °F 30.06 in Calm     96% 0.00 in 0.0 W/m2
03:24 74.7 °F 73.5 °F 30.06 in Calm     96% 0.00 in 0.0 W/m2
03:29 74.8 °F 73.6 °F 30.06 in Calm     96% 0.00 in 0.0 W/m2
03:30 74.8 °F 73.6 °F 30.06 in Calm     96% 0.00 in 0.0 W/m2
03:35 74.7 °F 73.5 °F 30.06 in Calm     96% 0.00 in 0.0 W/m2
03:37 74.8 °F 73.9 °F 30.06 in Calm     97% 0.00 in 0.0 W/m2
03:42 74.9 °F 74.0 °F 30.05 in Calm     97% 0.00 in 0.0 W/m2
03:47 74.8 °F 73.6 °F 30.05 in Calm     96% 0.00 in 0.0 W/m2
03:52 74.8 °F 73.6 °F 30.05 in Calm     96% 0.00 in 0.0 W/m2
03:57 74.7 °F 73.8 °F 30.05 in Calm     97% 0.00 in 0.0 W/m2
04:02 74.6 °F 73.7 °F 30.06 in ENE 0.2 mph 1.2 mph 97% 0.00 in 0.0 W/m2
04:07 74.6 °F 73.7 °F 30.05 in ENE 0.1 mph 2.3 mph 97% 0.00 in 0.0 W/m2
04:12 74.6 °F 73.7 °F 30.05 in East 1.0 mph 1.2 mph 97% 0.00 in 0.0 W/m2
04:18 74.6 °F 73.7 °F 30.05 in East 0.5 mph 2.3 mph 97% 0.00 in 0.0 W/m2
04:23 74.7 °F 73.8 °F 30.05 in East 0.1 mph 1.2 mph 97% 0.00 in 0.0 W/m2
04:28 74.8 °F 73.9 °F 30.05 in East 0.6 mph 1.2 mph 97% 0.00 in 0.0 W/m2
04:33 74.8 °F 73.9 °F 30.05 in Calm     97% 0.00 in 0.0 W/m2
04:38 74.8 °F 73.9 °F 30.05 in ENE 0.5 mph 1.2 mph 97% 0.00 in 0.0 W/m2
04:43 74.7 °F 73.8 °F 30.05 in Calm     97% 0.00 in 0.0 W/m2
04:48 74.7 °F 73.8 °F 30.06 in Calm     97% 0.00 in 0.0 W/m2
04:53 74.6 °F 73.7 °F 30.06 in Calm     97% 0.00 in 0.0 W/m2
04:58 74.5 °F 73.6 °F 30.06 in Calm     97% 0.00 in 0.0 W/m2
05:03 74.5 °F 73.6 °F 30.06 in Calm     97% 0.00 in 0.0 W/m2
05:08 74.5 °F 73.6 °F 30.05 in Calm     97% 0.00 in 0.0 W/m2
05:13 74.5 °F 73.6 °F 30.06 in Calm     97% 0.00 in 0.0 W/m2
05:18 74.4 °F 73.5 °F 30.06 in Calm     97% 0.00 in 0.0 W/m2
05:23 74.3 °F 73.4 °F 30.06 in Calm     97% 0.00 in 0.0 W/m2
05:28 74.4 °F 73.5 °F 30.06 in Calm   1.2 mph 97% 0.00 in 0.0 W/m2
05:34 74.5 °F 73.6 °F 30.06 in Calm     97% 0.00 in 0.0 W/m2
05:39 74.4 °F 73.5 °F 30.06 in Calm     97% 0.00 in 0.0 W/m2
05:44 74.3 °F 73.4 °F 30.06 in Calm     97% 0.00 in 0.0 W/m2
05:49 74.2 °F 73.3 °F 30.06 in Calm     97% 0.00 in 0.0 W/m2
05:54 74.1 °F 73.2 °F 30.06 in Calm     97% 0.00 in 0.0 W/m2
05:59 74.2 °F 73.3 °F 30.06 in Calm     97% 0.00 in 0.0 W/m2
06:04 74.1 °F 73.2 °F 30.06 in Calm     97% 0.00 in 0.0 W/m2
06:09 74.1 °F 73.2 °F 30.06 in Calm     97% 0.00 in 0.0 W/m2
06:14 74.1 °F 73.5 °F 30.06 in Calm     98% 0.00 in 0.0 W/m2
06:19 74.2 °F 73.6 °F 30.07 in Calm     98% 0.00 in 0.0 W/m2
06:24 74.2 °F 73.6 °F 30.07 in Calm     98% 0.00 in 0.0 W/m2
06:29 74.2 °F 73.6 °F 30.07 in Calm     98% 0.00 in 0.0 W/m2
06:34 74.2 °F 73.6 °F 30.07 in Calm   1.2 mph 98% 0.00 in 0.0 W/m2
06:39 74.3 °F 73.7 °F 30.07 in Calm     98% 0.00 in 0.0 W/m2
06:44 74.3 °F 73.7 °F 30.07 in East 0.1 mph 1.2 mph 98% 0.00 in 0.0 W/m2
06:50 74.5 °F 73.9 °F 30.07 in Calm     98% 0.00 in 0.0 W/m2
06:55 74.6 °F 74.0 °F 30.08 in Calm     98% 0.00 in 0.0 W/m2
07:00 74.7 °F 74.1 °F 30.08 in Calm     98% 0.00 in 0.0 W/m2
07:05 75.0 °F 74.4 °F 30.08 in Calm     98% 0.00 in 0.0 W/m2
07:10 75.4 °F 74.8 °F 30.08 in Calm     98% 0.00 in 0.0 W/m2
07:15 75.7 °F 74.8 °F 30.08 in Calm     97% 0.00 in 0.0 W/m2
07:20 76.1 °F 75.1 °F 30.08 in Calm   1.0 mph 97% 0.00 in 0.0 W/m2
07:25 76.4 °F 75.2 °F 30.08 in Calm   1.0 mph 96% 0.00 in 0.0 W/m2
07:30 76.8 °F 75.6 °F 30.09 in Calm   1.0 mph 96% 0.00 in 0.0 W/m2
07:35 77.2 °F 75.7 °F 30.09 in ENE 0.2 mph 1.2 mph 95% 0.00 in 0.0 W/m2
07:40 77.4 °F 75.6 °F 30.09 in ENE 1.0 mph 2.0 mph 94% 0.00 in 0.0 W/m2
07:45 77.6 °F 75.7 °F 30.08 in ENE 1.4 mph 3.5 mph 94% 0.00 in 0.0 W/m2
07:50 78.0 °F 76.1 °F 30.09 in NE 0.9 mph 2.3 mph 94% 0.00 in 0.0 W/m2
08:00 78.5 °F 76.3 °F 30.09 in ENE 2.0 mph 3.0 mph 93% 0.00 in 0.0 W/m2
08:05 78.8 °F 76.3 °F 30.09 in ENE 2.0 mph 3.5 mph 92% 0.00 in 0.0 W/m2
08:10 79.4 °F 76.9 °F 30.09 in East 1.6 mph 3.5 mph 92% 0.00 in 0.0 W/m2
08:15 79.7 °F 77.2 °F 30.09 in ENE 2.0 mph 5.0 mph 92% 0.00 in 0.0 W/m2
08:20 80.1 °F 77.2 °F 30.09 in ENE 2.0 mph 5.0 mph 91% 0.00 in 0.0 W/m2
08:25 80.6 °F 77.8 °F 30.09 in ENE 1.0 mph 2.0 mph 91% 0.00 in 0.0 W/m2
08:30 81.3 °F 78.1 °F 30.09 in East 1.3 mph 3.5 mph 90% 0.00 in 0.0 W/m2
08:35 81.7 °F 78.1 °F 30.10 in ENE 2.0 mph 3.0 mph 89% 0.00 in 0.0 W/m2
08:40 82.0 °F 78.4 °F 30.09 in ENE 1.0 mph 3.0 mph 89% 0.00 in 0.0 W/m2
08:45 82.3 °F 78.7 °F 30.09 in ENE 1.6 mph 4.6 mph 89% 0.00 in 0.0 W/m2
08:50 82.8 °F 78.5 °F 30.10 in ENE 3.3 mph 5.8 mph 87% 0.00 in 0.0 W/m2
08:55 83.1 °F 78.8 °F 30.10 in ENE 4.4 mph 6.9 mph 87% 0.00 in 0.0 W/m2
09:00 83.3 °F 79.0 °F 30.10 in ENE 3.1 mph 4.6 mph 87% 0.00 in 0.0 W/m2
09:05 83.4 °F 79.1 °F 30.10 in ENE 3.9 mph 6.9 mph 87% 0.00 in 0.0 W/m2
09:10 83.4 °F 78.8 °F 30.10 in ENE 4.6 mph 6.9 mph 86% 0.00 in 0.0 W/m2
09:15 83.5 °F 78.9 °F 30.10 in East 3.4 mph 6.6 mph 86% 0.00 in 0.0 W/m2
09:20 84.0 °F 79.0 °F 30.10 in ENE 4.0 mph 5.8 mph 85% 0.00 in 0.0 W/m2
09:25 84.5 °F 79.5 °F 30.10 in East 1.7 mph 3.5 mph 85% 0.00 in 245.2 W/m2
09:30 84.8 °F 79.4 °F 30.10 in East 1.5 mph 3.5 mph 84% 0.00 in 49.5 W/m2
09:35 85.3 °F 79.5 °F 30.10 in East 1.6 mph 4.6 mph 83% 0.00 in 49.5 W/m2
09:40 85.9 °F 79.8 °F 30.10 in East 4.7 mph 8.1 mph 82% 0.00 in 245.2 W/m2
09:45 85.5 °F 79.4 °F 30.10 in ESE 5.8 mph 9.2 mph 82% 0.00 in 245.2 W/m2
09:50 85.5 °F 79.7 °F 30.10 in East 3.0 mph 6.9 mph 83% 0.00 in 0.0 W/m2
09:55 85.6 °F 78.7 °F 30.10 in ENE 5.2 mph 6.9 mph 80% 0.00 in 0.0 W/m2
10:00 86.1 °F 79.6 °F 30.10 in East 3.1 mph 5.8 mph 81% 0.00 in 0.0 W/m2
10:06 86.7 °F 79.4 °F 30.10 in ENE 6.2 mph 6.6 mph 79% 0.00 in 0.0 W/m2
Juneau County Weather
Compliments of Weather Underground - 2.25 mb